NOZ1151 ENBR-EDDE
Flight info
| Callsign | NOZ1151 |
|---|---|
| Flight time | N/A |
| Altitude | 35000 |
| Route | TUXIL DCT ZOL DCT ATTUS DCT POVEL Z94 GALMA M736 RELKO RELKO1R |
| Aircraft | B738/M-SDE2E3FGHIRWXY/LB1 |
Departure
| Time | 2026-04-28 14:52 |
|---|---|
| Airport | Bergen Airport, Flesland (ENBR) |
Arrival
| Time | N/A |
|---|---|
| Airport | Erfurt-Weimar Airport (EDDE) |
| Time | Latitude | Longitude | Altitude | Speed | Heading |
|---|---|---|---|---|---|
| 2026-04-28 14:11 | 60.28891 | 5.22532 | 149 ft | 0 kts | 102° |
| 2026-04-28 14:42 | 60.28893 | 5.22512 | 149 ft | 2 kts | 88° |
| 2026-04-28 14:42 | 60.28891 | 5.22479 | 149 ft | 2 kts | 113° |
| 2026-04-28 14:42 | 60.28899 | 5.22450 | 149 ft | 2 kts | 174° |
| 2026-04-28 14:42 | 60.28902 | 5.22449 | 149 ft | 0 kts | 172° |
| 2026-04-28 14:47 | 60.28900 | 5.22449 | 149 ft | 1 kts | 175° |
| 2026-04-28 14:47 | 60.28877 | 5.22437 | 149 ft | 6 kts | 199° |
| 2026-04-28 14:47 | 60.28824 | 5.22420 | 149 ft | 8 kts | 201° |
| 2026-04-28 14:47 | 60.28771 | 5.22335 | 148 ft | 13 kts | 182° |
| 2026-04-28 14:48 | 60.28661 | 5.22369 | 148 ft | 19 kts | 172° |
| 2026-04-28 14:48 | 60.28546 | 5.22406 | 147 ft | 17 kts | 169° |
| 2026-04-28 14:48 | 60.28421 | 5.22446 | 145 ft | 19 kts | 170° |
| 2026-04-28 14:48 | 60.28291 | 5.22488 | 144 ft | 16 kts | 172° |
| 2026-04-28 14:49 | 60.28174 | 5.22527 | 143 ft | 18 kts | 170° |
| 2026-04-28 14:49 | 60.28062 | 5.22497 | 142 ft | 14 kts | 239° |
| 2026-04-28 14:49 | 60.28056 | 5.22440 | 142 ft | 0 kts | 262° |
| 2026-04-28 14:50 | 60.28055 | 5.22428 | 142 ft | 3 kts | 262° |
| 2026-04-28 14:50 | 60.28050 | 5.22352 | 140 ft | 9 kts | 263° |
| 2026-04-28 14:51 | 60.28049 | 5.22259 | 139 ft | 3 kts | 298° |
| 2026-04-28 14:51 | 60.28070 | 5.22247 | 140 ft | 6 kts | 345° |
| 2026-04-28 14:51 | 60.28146 | 5.22218 | 141 ft | 24 kts | 350° |
| 2026-04-28 14:51 | 60.28566 | 5.22074 | 149 ft | 97 kts | 350° |
| 2026-04-28 14:52 | 60.29446 | 5.21764 | 164 ft | 157 kts | 350° |
| 2026-04-28 14:52 | 60.30545 | 5.21451 | 954 ft | 154 kts | 348° |
| 2026-04-28 14:52 | 60.31596 | 5.21116 | 1898 ft | 160 kts | 349° |
| 2026-04-28 14:52 | 60.32803 | 5.20728 | 2295 ft | 193 kts | 350° |
| 2026-04-28 14:53 | 60.34214 | 5.20265 | 2779 ft | 215 kts | 350° |
| 2026-04-28 14:53 | 60.35781 | 5.19721 | 3092 ft | 246 kts | 350° |
| 2026-04-28 14:53 | 60.37525 | 5.19143 | 3827 ft | 257 kts | 351° |
| 2026-04-28 14:53 | 60.39267 | 5.18559 | 5009 ft | 250 kts | 351° |
| 2026-04-28 14:54 | 60.40982 | 5.17975 | 5680 ft | 253 kts | 351° |
| 2026-04-28 14:54 | 60.42680 | 5.17386 | 5994 ft | 248 kts | 350° |
| 2026-04-28 14:54 | 60.44418 | 5.16780 | 5984 ft | 256 kts | 350° |
| 2026-04-28 14:54 | 60.46167 | 5.16079 | 5983 ft | 257 kts | 342° |
| 2026-04-28 14:55 | 60.47637 | 5.14168 | 5992 ft | 259 kts | 313° |
| 2026-04-28 14:55 | 60.48518 | 5.10933 | 6009 ft | 264 kts | 288° |
| 2026-04-28 14:55 | 60.48654 | 5.07240 | 6257 ft | 273 kts | 265° |
| 2026-04-28 14:55 | 60.48329 | 5.03441 | 7219 ft | 274 kts | 258° |
| 2026-04-28 14:56 | 60.47412 | 5.00019 | 8017 ft | 286 kts | 228° |
| 2026-04-28 14:56 | 60.45715 | 4.97835 | 8771 ft | 298 kts | 198° |
| 2026-04-28 14:56 | 60.43635 | 4.97494 | 9532 ft | 305 kts | 174° |
| 2026-04-28 14:56 | 60.41501 | 4.97946 | 10293 ft | 312 kts | 173° |
| 2026-04-28 14:57 | 60.39318 | 4.98470 | 10866 ft | 324 kts | 173° |
| 2026-04-28 14:57 | 60.37763 | 4.98840 | 10981 ft | 341 kts | 173° |
| 2026-04-28 14:57 | 60.34502 | 4.99575 | 11382 ft | 367 kts | 173° |
| 2026-04-28 14:57 | 60.31930 | 5.00121 | 11965 ft | 376 kts | 173° |
| 2026-04-28 14:58 | 60.29317 | 5.00663 | 12677 ft | 380 kts | 173° |
| 2026-04-28 14:58 | 60.26668 | 5.01270 | 13380 ft | 385 kts | 170° |
| 2026-04-28 14:58 | 60.24017 | 5.02275 | 14050 ft | 391 kts | 167° |
| 2026-04-28 14:58 | 60.21335 | 5.03425 | 14674 ft | 397 kts | 167° |
| 2026-04-28 14:59 | 60.18619 | 5.04557 | 15314 ft | 400 kts | 167° |
| 2026-04-28 14:59 | 60.15881 | 5.05712 | 15965 ft | 403 kts | 163° |
| 2026-04-28 14:59 | 60.13236 | 5.07601 | 16582 ft | 405 kts | 154° |
| 2026-04-28 14:59 | 60.10645 | 5.09890 | 17207 ft | 409 kts | 153° |
| 2026-04-28 15:00 | 60.08042 | 5.12265 | 17834 ft | 413 kts | 153° |
| 2026-04-28 15:00 | 60.05410 | 5.14642 | 18460 ft | 416 kts | 153° |
| 2026-04-28 15:00 | 60.02757 | 5.16988 | 19066 ft | 419 kts | 153° |
| 2026-04-28 15:00 | 60.00071 | 5.19319 | 19615 ft | 423 kts | 154° |
| 2026-04-28 15:01 | 59.97357 | 5.21646 | 20181 ft | 425 kts | 154° |
| 2026-04-28 15:01 | 59.94623 | 5.23974 | 20726 ft | 428 kts | 154° |
| 2026-04-28 15:01 | 59.91870 | 5.26310 | 21252 ft | 431 kts | 154° |
| 2026-04-28 15:01 | 59.89097 | 5.28660 | 21802 ft | 435 kts | 154° |
| 2026-04-28 15:02 | 59.86290 | 5.31039 | 22202 ft | 441 kts | 154° |
| 2026-04-28 15:02 | 59.83495 | 5.33403 | 22686 ft | 444 kts | 154° |
| 2026-04-28 15:02 | 59.80633 | 5.35770 | 23243 ft | 447 kts | 157° |
| 2026-04-28 15:02 | 59.77579 | 5.37065 | 23693 ft | 454 kts | 174° |
| 2026-04-28 15:03 | 59.74412 | 5.37448 | 24158 ft | 457 kts | 175° |
| 2026-04-28 15:03 | 59.71228 | 5.37809 | 24537 ft | 461 kts | 175° |
| 2026-04-28 15:03 | 59.68020 | 5.38265 | 24904 ft | 464 kts | 174° |
| 2026-04-28 15:03 | 59.64787 | 5.38790 | 25283 ft | 467 kts | 173° |
| 2026-04-28 15:04 | 59.61552 | 5.39478 | 25663 ft | 470 kts | 171° |
| 2026-04-28 15:04 | 59.58299 | 5.40322 | 26046 ft | 473 kts | 170° |
| 2026-04-28 15:04 | 59.55033 | 5.41214 | 26428 ft | 476 kts | 170° |
| 2026-04-28 15:04 | 59.51744 | 5.42099 | 26820 ft | 478 kts | 170° |
| 2026-04-28 15:05 | 59.48431 | 5.42960 | 27190 ft | 481 kts | 170° |
| 2026-04-28 15:05 | 59.45100 | 5.43802 | 27592 ft | 483 kts | 171° |
| 2026-04-28 15:05 | 59.41755 | 5.44639 | 27969 ft | 486 kts | 171° |
| 2026-04-28 15:05 | 59.38400 | 5.45546 | 28306 ft | 488 kts | 168° |
| 2026-04-28 15:06 | 59.35042 | 5.46690 | 28632 ft | 491 kts | 167° |
| 2026-04-28 15:06 | 59.31675 | 5.47958 | 28967 ft | 494 kts | 166° |
| 2026-04-28 15:06 | 59.28295 | 5.49261 | 29315 ft | 496 kts | 166° |
| 2026-04-28 15:06 | 59.24898 | 5.50558 | 29638 ft | 499 kts | 166° |
| 2026-04-28 15:07 | 59.21479 | 5.51835 | 29941 ft | 502 kts | 166° |
| 2026-04-28 15:07 | 59.18040 | 5.53093 | 30254 ft | 504 kts | 166° |
| 2026-04-28 15:07 | 59.14587 | 5.54339 | 30565 ft | 506 kts | 167° |
| 2026-04-28 15:07 | 59.11122 | 5.55581 | 30815 ft | 508 kts | 167° |
| 2026-04-28 15:08 | 59.08806 | 5.56409 | 30972 ft | 510 kts | 167° |
| 2026-04-28 15:08 | 59.05312 | 5.57657 | 31273 ft | 510 kts | 166° |
| 2026-04-28 15:08 | 59.01823 | 5.58902 | 31640 ft | 509 kts | 166° |
| 2026-04-28 15:08 | 58.98338 | 5.60145 | 31995 ft | 509 kts | 166° |
| 2026-04-28 15:09 | 58.94862 | 5.61384 | 32309 ft | 509 kts | 166° |
| 2026-04-28 15:09 | 58.91380 | 5.62624 | 32602 ft | 509 kts | 166° |
| 2026-04-28 15:09 | 58.87917 | 5.64020 | 32940 ft | 506 kts | 161° |
| 2026-04-28 15:09 | 58.84610 | 5.66238 | 33270 ft | 499 kts | 150° |
| 2026-04-28 15:10 | 58.81465 | 5.69043 | 33606 ft | 497 kts | 149° |
| 2026-04-28 15:10 | 58.78335 | 5.71898 | 33892 ft | 498 kts | 149° |
| 2026-04-28 15:10 | 58.75207 | 5.74751 | 34190 ft | 498 kts | 149° |
| 2026-04-28 15:10 | 58.72067 | 5.77589 | 34508 ft | 498 kts | 149° |
| 2026-04-28 15:11 | 58.68932 | 5.80389 | 34817 ft | 496 kts | 149° |
| 2026-04-28 15:11 | 58.65804 | 5.83154 | 35168 ft | 494 kts | 150° |
| 2026-04-28 15:11 | 58.62685 | 5.85892 | 35480 ft | 492 kts | 150° |
| 2026-04-28 15:12 | 58.56404 | 5.91381 | 35487 ft | 498 kts | 150° |
| 2026-04-28 15:12 | 58.50116 | 5.96844 | 35475 ft | 493 kts | 150° |
| 2026-04-28 15:13 | 58.43891 | 6.02231 | 35484 ft | 490 kts | 150° |
| 2026-04-28 15:13 | 58.37722 | 6.07559 | 35488 ft | 490 kts | 150° |
| 2026-04-28 15:14 | 58.31513 | 6.12903 | 35489 ft | 490 kts | 150° |
| 2026-04-28 15:14 | 58.25304 | 6.18224 | 35518 ft | 490 kts | 150° |
| 2026-04-28 15:15 | 58.19071 | 6.23546 | 35487 ft | 491 kts | 150° |
| 2026-04-28 15:15 | 58.12829 | 6.28852 | 35485 ft | 492 kts | 150° |
| 2026-04-28 15:16 | 58.06577 | 6.34147 | 35486 ft | 493 kts | 150° |
| 2026-04-28 15:16 | 58.00315 | 6.39431 | 35485 ft | 493 kts | 150° |
| 2026-04-28 15:17 | 57.94041 | 6.44703 | 35480 ft | 494 kts | 150° |
| 2026-04-28 15:17 | 57.87771 | 6.49951 | 35482 ft | 493 kts | 150° |
| 2026-04-28 15:18 | 57.81494 | 6.55186 | 35479 ft | 493 kts | 150° |
| 2026-04-28 15:18 | 57.75227 | 6.60392 | 35479 ft | 493 kts | 150° |
| 2026-04-28 15:19 | 57.68974 | 6.65567 | 35478 ft | 492 kts | 150° |
| 2026-04-28 15:19 | 57.62698 | 6.70743 | 35488 ft | 492 kts | 150° |
| 2026-04-28 15:20 | 57.56445 | 6.75879 | 35483 ft | 491 kts | 150° |
| 2026-04-28 15:20 | 57.50198 | 6.80991 | 35481 ft | 490 kts | 150° |
| 2026-04-28 15:21 | 57.43994 | 6.86049 | 35486 ft | 489 kts | 151° |
| 2026-04-28 15:21 | 57.37761 | 6.91112 | 35483 ft | 489 kts | 151° |
| 2026-04-28 15:22 | 57.31542 | 6.96145 | 35482 ft | 488 kts | 151° |
| 2026-04-28 15:22 | 57.25319 | 7.01162 | 35482 ft | 487 kts | 151° |
| 2026-04-28 15:23 | 57.19102 | 7.06156 | 35483 ft | 487 kts | 151° |
| 2026-04-28 15:23 | 57.12887 | 7.11130 | 35505 ft | 487 kts | 151° |
| 2026-04-28 15:24 | 57.06662 | 7.16096 | 35488 ft | 488 kts | 151° |
| 2026-04-28 15:24 | 57.00436 | 7.21042 | 35484 ft | 488 kts | 151° |
| 2026-04-28 15:25 | 56.94205 | 7.25974 | 35485 ft | 488 kts | 151° |
| 2026-04-28 15:25 | 56.87961 | 7.30898 | 35477 ft | 488 kts | 151° |
| 2026-04-28 15:26 | 56.81729 | 7.35795 | 35480 ft | 488 kts | 151° |
| 2026-04-28 15:26 | 56.75527 | 7.40650 | 35480 ft | 488 kts | 151° |
| 2026-04-28 15:27 | 56.69289 | 7.45517 | 35480 ft | 488 kts | 151° |
| 2026-04-28 15:27 | 56.63053 | 7.50364 | 35474 ft | 487 kts | 151° |
| 2026-04-28 15:28 | 56.56818 | 7.55194 | 35509 ft | 487 kts | 151° |
| 2026-04-28 15:28 | 56.50576 | 7.60012 | 35471 ft | 487 kts | 151° |
| 2026-04-28 15:29 | 56.44336 | 7.64809 | 35467 ft | 487 kts | 151° |
| 2026-04-28 15:29 | 56.38095 | 7.69591 | 35469 ft | 487 kts | 151° |
| 2026-04-28 15:30 | 56.31862 | 7.74350 | 35469 ft | 486 kts | 151° |
| 2026-04-28 15:30 | 56.25637 | 7.79085 | 35467 ft | 486 kts | 151° |
| 2026-04-28 15:31 | 56.19417 | 7.83800 | 35458 ft | 485 kts | 152° |
| 2026-04-28 15:31 | 56.13199 | 7.88498 | 35451 ft | 485 kts | 152° |
| 2026-04-28 15:32 | 56.07025 | 7.93146 | 35454 ft | 484 kts | 152° |
| 2026-04-28 15:32 | 56.00808 | 7.97810 | 35471 ft | 484 kts | 152° |
| 2026-04-28 15:33 | 55.94592 | 8.02458 | 35449 ft | 484 kts | 152° |
| 2026-04-28 15:33 | 55.88372 | 8.07090 | 35444 ft | 484 kts | 152° |
| 2026-04-28 15:34 | 55.82149 | 8.11710 | 35444 ft | 484 kts | 152° |
| 2026-04-28 15:34 | 55.75930 | 8.16310 | 35432 ft | 484 kts | 152° |
| 2026-04-28 15:35 | 55.69713 | 8.20894 | 35430 ft | 484 kts | 152° |
| 2026-04-28 15:35 | 55.60379 | 8.27745 | 35428 ft | 484 kts | 152° |
| 2026-04-28 15:36 | 55.54154 | 8.32296 | 35424 ft | 484 kts | 152° |
| 2026-04-28 15:36 | 55.47923 | 8.36834 | 35458 ft | 484 kts | 152° |
| 2026-04-28 15:37 | 55.41683 | 8.41364 | 35428 ft | 485 kts | 152° |
| 2026-04-28 15:37 | 55.36486 | 8.45125 | 35406 ft | 486 kts | 152° |
| 2026-04-28 15:38 | 55.29181 | 8.50392 | 35407 ft | 485 kts | 152° |
| 2026-04-28 15:38 | 55.22937 | 8.54878 | 35413 ft | 485 kts | 152° |
| 2026-04-28 15:39 | 55.16685 | 8.59355 | 35419 ft | 485 kts | 152° |
| 2026-04-28 15:39 | 55.10437 | 8.63814 | 35411 ft | 485 kts | 152° |
| 2026-04-28 15:40 | 55.04236 | 8.68225 | 35406 ft | 484 kts | 152° |
| 2026-04-28 15:40 | 54.97995 | 8.72650 | 35407 ft | 484 kts | 152° |
| 2026-04-28 15:41 | 54.91751 | 8.77064 | 35407 ft | 484 kts | 152° |
| 2026-04-28 15:41 | 54.85554 | 8.81617 | 35402 ft | 482 kts | 150° |